createdAt,value
2018-02-17T00:02:09.102Z,18.67
2018-02-17T00:04:37.293Z,18.63
2018-02-17T00:07:05.482Z,19.73
2018-02-17T00:09:32.912Z,18.20
2018-02-17T00:12:00.339Z,12.97
2018-02-17T00:14:27.758Z,17.83
2018-02-17T00:16:55.194Z,18.30
2018-02-17T00:19:23.425Z,19.30
2018-02-17T00:21:50.839Z,16.40
2018-02-17T00:24:18.266Z,19.67
2018-02-17T00:26:45.694Z,16.67
2018-02-17T00:29:13.890Z,17.00
2018-02-17T00:31:41.314Z,24.10
2018-02-17T00:34:08.738Z,15.40
2018-02-17T00:36:36.939Z,23.13
2018-02-17T00:39:04.458Z,25.93
2018-02-17T00:41:32.003Z,24.47
2018-02-17T00:43:59.498Z,21.50
2018-02-17T00:46:27.794Z,14.23
2018-02-17T00:48:55.291Z,21.20
2018-02-17T00:51:22.720Z,22.53
2018-02-17T00:53:50.133Z,17.03
2018-02-17T00:56:17.555Z,18.37
2018-02-17T00:58:44.990Z,19.57
2018-02-17T01:01:12.413Z,15.60
2018-02-17T01:03:40.606Z,15.83
2018-02-17T01:06:08.022Z,17.63
2018-02-17T01:08:35.446Z,19.07
2018-02-17T01:11:02.879Z,18.80
2018-02-17T01:13:30.302Z,14.27
2018-02-17T01:15:57.718Z,12.47
2018-02-17T01:18:25.142Z,18.97
2018-02-17T01:20:53.339Z,17.07
2018-02-17T01:23:20.910Z,13.43
2018-02-17T01:25:48.330Z,13.83
2018-02-17T01:28:16.536Z,12.10
2018-02-17T01:30:43.963Z,16.60
2018-02-17T01:33:12.146Z,13.00
2018-02-17T01:35:39.576Z,13.43
2018-02-17T01:38:07.002Z,13.57
2018-02-17T01:40:34.426Z,10.27
2018-02-17T01:43:01.857Z,12.80
2018-02-17T01:45:30.042Z,17.87
2018-02-17T01:47:58.239Z,15.37
2018-02-17T01:50:32.522Z,18.37
2018-02-17T01:52:59.947Z,19.33
2018-02-17T01:55:27.367Z,16.23
2018-02-17T01:57:54.798Z,12.27
2018-02-17T02:00:22.218Z,16.87
2018-02-17T02:02:49.640Z,16.10
2018-02-17T02:05:17.834Z,16.50
2018-02-17T02:07:45.258Z,16.70
2018-02-17T02:10:13.554Z,10.37
2018-02-17T02:12:40.974Z,17.30
2018-02-17T02:15:08.389Z,12.93
2018-02-17T02:17:35.822Z,11.67
2018-02-17T02:20:03.246Z,14.13
2018-02-17T02:22:31.442Z,13.60
2018-02-17T02:24:58.858Z,11.37
2018-02-17T02:27:26.513Z,14.10
2018-02-17T02:29:53.935Z,15.23
2018-02-17T02:32:21.363Z,13.80
2018-02-17T02:34:49.554Z,14.33
2018-02-17T02:37:16.974Z,11.90
2018-02-17T02:39:44.411Z,15.30
2018-02-17T02:42:11.832Z,14.80
2018-02-17T02:44:39.279Z,15.37
2018-02-17T02:47:07.862Z,10.73
2018-02-17T02:49:35.294Z,15.97
2018-02-17T02:52:03.506Z,12.73
2018-02-17T02:54:30.926Z,10.53
2018-02-17T02:56:59.125Z,14.97
2018-02-17T02:59:26.552Z,15.53
2018-02-17T03:01:53.976Z,14.70
2018-02-17T03:04:21.398Z,15.23
2018-02-17T03:06:48.818Z,16.27
2018-02-17T03:09:16.241Z,17.77
2018-02-17T03:11:43.663Z,16.57
2018-02-17T03:14:11.082Z,17.73
2018-02-17T03:16:38.506Z,15.97
2018-02-17T03:19:05.917Z,17.23
2018-02-17T03:21:34.098Z,15.50
2018-02-17T03:24:01.750Z,14.63
2018-02-17T03:26:29.942Z,14.23
2018-02-17T03:28:57.366Z,13.37
2018-02-17T03:31:24.794Z,11.00
2018-02-17T03:33:52.222Z,13.37
2018-02-17T03:36:19.649Z,14.43
2018-02-17T03:38:47.834Z,14.27
2018-02-17T03:41:15.258Z,14.30
2018-02-17T03:43:42.686Z,15.67
2018-02-17T03:46:10.110Z,13.83
2018-02-17T03:48:37.682Z,14.13
2018-02-17T03:51:05.103Z,12.37
2018-02-17T03:53:33.290Z,12.80
2018-02-17T03:56:00.731Z,14.00
2018-02-17T03:58:28.926Z,12.87
2018-02-17T04:00:57.117Z,12.40
2018-02-17T04:03:24.542Z,13.63
2018-02-17T04:05:52.725Z,13.20
2018-02-17T04:08:20.161Z,13.63
2018-02-17T04:10:47.602Z,15.27
2018-02-17T04:13:15.010Z,14.30
2018-02-17T04:15:42.425Z,15.93
2018-02-17T04:18:10.618Z,17.47
2018-02-17T04:20:38.039Z,15.93
2018-02-17T04:23:05.668Z,15.23
2018-02-17T04:25:33.079Z,17.60
2018-02-17T04:28:01.262Z,14.97
2018-02-17T04:30:29.453Z,15.17
2018-02-17T04:32:56.878Z,15.17
2018-02-17T04:35:24.290Z,14.83
2018-02-17T04:37:51.718Z,12.97
2018-02-17T04:40:34.830Z,16.63
2018-02-17T04:43:03.654Z,17.27
2018-02-17T04:45:32.649Z,20.53
2018-02-17T04:48:17.782Z,16.43
2018-02-17T04:54:06.252Z,18.70
2018-02-17T04:56:40.061Z,18.37
2018-02-17T04:59:13.216Z,19.03
2018-02-17T05:01:51.474Z,15.17
2018-02-17T05:04:18.904Z,19.03
2018-02-17T05:06:50.766Z,17.70
2018-02-17T05:09:19.066Z,19.60
2018-02-17T05:11:46.513Z,20.33
2018-02-17T05:17:26.106Z,21.07
2018-02-17T05:20:05.321Z,21.87
2018-02-17T05:22:35.329Z,19.87
2018-02-17T05:25:17.858Z,19.67
2018-02-17T05:27:50.882Z,22.10
2018-02-17T05:30:18.310Z,20.87
2018-02-17T05:33:00.546Z,20.60
2018-02-17T05:35:45.819Z,19.30
2018-02-17T05:38:13.276Z,21.63
2018-02-17T05:40:46.318Z,16.27
2018-02-17T05:43:13.742Z,18.13
2018-02-17T05:45:49.379Z,18.30
2018-02-17T05:48:17.561Z,17.90
2018-02-17T05:50:45.749Z,16.77
2018-02-17T05:53:13.177Z,16.93
2018-02-17T05:55:41.091Z,16.47
2018-02-17T05:58:08.509Z,15.40
2018-02-17T06:00:36.703Z,15.77
2018-02-17T06:03:04.129Z,14.97
2018-02-17T06:05:32.322Z,13.60
2018-02-17T06:07:59.750Z,13.63
2018-02-17T06:10:27.173Z,12.87
2018-02-17T06:12:54.626Z,13.10
2018-02-17T06:15:22.045Z,14.20
2018-02-17T06:17:50.230Z,12.73
2018-02-17T06:20:17.659Z,14.13
2018-02-17T06:22:45.845Z,14.50
2018-02-17T06:25:14.042Z,12.83
2018-02-17T06:27:41.478Z,13.50
2018-02-17T06:30:08.921Z,12.50
2018-02-17T06:32:37.105Z,13.10
2018-02-17T06:35:05.308Z,11.57
2018-02-17T06:37:33.630Z,15.23
2018-02-17T06:40:01.058Z,15.33
2018-02-17T06:42:28.494Z,14.80
2018-02-17T06:44:55.914Z,14.90
2018-02-17T06:47:24.097Z,14.13
2018-02-17T06:49:52.531Z,14.80
2018-02-17T06:52:19.950Z,14.73
2018-02-17T06:54:47.370Z,14.77
2018-02-17T06:57:14.794Z,14.23
2018-02-17T06:59:42.523Z,14.60
2018-02-17T07:02:09.938Z,14.40
2018-02-17T07:04:37.353Z,13.23
2018-02-17T07:07:04.798Z,14.60
2018-02-17T07:09:32.223Z,12.93
2018-02-17T07:12:00.405Z,12.47
2018-02-17T07:14:28.598Z,14.00
2018-02-17T07:16:56.018Z,13.47
2018-02-17T07:19:23.446Z,14.47
2018-02-17T07:21:50.870Z,13.87
2018-02-17T07:24:18.302Z,13.67
2018-02-17T07:26:46.489Z,14.20
2018-02-17T07:29:14.686Z,15.10
2018-02-17T07:31:42.202Z,14.63
2018-02-17T07:34:10.398Z,14.80
2018-02-17T07:36:37.814Z,15.20
2018-02-17T07:39:05.254Z,14.83
2018-02-17T07:41:32.707Z,15.13
2018-02-17T07:44:00.139Z,14.70
2018-02-17T07:46:27.558Z,13.73
2018-02-17T07:48:55.750Z,14.90
2018-02-17T07:51:24.001Z,12.93
2018-02-17T07:53:51.430Z,14.20
2018-02-17T07:56:18.858Z,15.80
2018-02-17T07:58:46.282Z,13.07
2018-02-17T08:01:14.466Z,13.73
2018-02-17T08:03:42.983Z,14.30
2018-02-17T08:06:10.407Z,17.30
2018-02-17T08:08:43.874Z,16.37
2018-02-17T08:11:11.302Z,15.67
2018-02-17T08:13:39.036Z,16.17
2018-02-17T08:16:06.476Z,16.17
2018-02-17T08:18:34.677Z,17.30
2018-02-17T08:21:02.105Z,18.50
2018-02-17T08:23:30.291Z,16.43
2018-02-17T08:25:57.714Z,16.50
2018-02-17T08:28:25.143Z,16.47
2018-02-17T08:30:52.892Z,15.93
2018-02-17T08:33:20.313Z,17.10
2018-02-17T08:35:48.506Z,16.40
2018-02-17T08:38:15.930Z,14.67
2018-02-17T08:40:43.355Z,15.27
2018-02-17T08:43:11.198Z,14.80
2018-02-17T08:45:38.626Z,15.17
2018-02-17T08:48:06.815Z,15.57
2018-02-17T08:50:34.247Z,12.93
2018-02-17T08:53:02.446Z,14.73
2018-02-17T08:55:30.639Z,15.10
2018-02-17T08:57:58.268Z,13.97
2018-02-17T09:00:25.630Z,15.47
2018-02-17T09:02:53.077Z,14.50
2018-02-17T09:05:20.506Z,15.10
